Terminal Aerodrome Forecast
Issued by NWS Sterling, VA

Home | Current Version | Previous Version | Text Only | Print | Product List | Glossary On
Versions: 1 2 3 4 5 6 7 8 9 10 11 12 13 14 15 16
000
FTUS41 KLWX 020541
TAFCHO
TAF
KCHO 020541Z 0206/0306 VRB03KT P6SM BKN008
     FM020900 VRB03KT 3SM -DZ BR BKN003
     FM021200 22005KT 1SM BR BKN005
     FM021500 22006KT P6SM SCT020
     FM021600 22007KT P6SM BKN100
     FM022200 22008KT P6SM -SHRA VCTS BKN050CB
     FM030200 23005KT 5SM -SHRA OVC050=

USA.gov is the U.S. government's official web portal to all federal, state and local government web resources and services.